sensor_id;sensor_type;location;lat;lon;timestamp;P1;durP1;ratioP1;P2;durP2;ratioP2
8038;SDS011;4062;49.844;8.120;2023-07-02T00:01:49;0.50;;;0.40;;
8038;SDS011;4062;49.844;8.120;2023-07-02T00:03:52;0.40;;;0.30;;
8038;SDS011;4062;49.844;8.120;2023-07-02T00:05:56;0.60;;;0.30;;
8038;SDS011;4062;49.844;8.120;2023-07-02T00:07:58;0.50;;;0.30;;
8038;SDS011;4062;49.844;8.120;2023-07-02T00:09:59;0.40;;;0.30;;
8038;SDS011;4062;49.844;8.120;2023-07-02T00:12:00;0.40;;;0.30;;
8038;SDS011;4062;49.844;8.120;2023-07-02T00:14:08;0.40;;;0.30;;
8038;SDS011;4062;49.844;8.120;2023-07-02T00:16:10;0.50;;;0.30;;
8038;SDS011;4062;49.844;8.120;2023-07-02T00:18:11;0.50;;;0.33;;
8038;SDS011;4062;49.844;8.120;2023-07-02T00:20:16;0.40;;;0.30;;
8038;SDS011;4062;49.844;8.120;2023-07-02T00:22:20;0.40;;;0.30;;
8038;SDS011;4062;49.844;8.120;2023-07-02T00:24:22;0.60;;;0.40;;
8038;SDS011;4062;49.844;8.120;2023-07-02T00:26:23;0.50;;;0.40;;
8038;SDS011;4062;49.844;8.120;2023-07-02T00:28:25;0.47;;;0.37;;
8038;SDS011;4062;49.844;8.120;2023-07-02T00:30:27;0.40;;;0.30;;
8038;SDS011;4062;49.844;8.120;2023-07-02T00:32:28;0.50;;;0.40;;
8038;SDS011;4062;49.844;8.120;2023-07-02T00:34:30;0.40;;;0.33;;
8038;SDS011;4062;49.844;8.120;2023-07-02T00:36:31;0.40;;;0.30;;
8038;SDS011;4062;49.844;8.120;2023-07-02T00:38:33;0.40;;;0.30;;
8038;SDS011;4062;49.844;8.120;2023-07-02T00:40:34;0.40;;;0.30;;
8038;SDS011;4062;49.844;8.120;2023-07-02T00:42:37;0.40;;;0.30;;
8038;SDS011;4062;49.844;8.120;2023-07-02T00:44:38;0.40;;;0.30;;
8038;SDS011;4062;49.844;8.120;2023-07-02T00:46:40;0.43;;;0.30;;
8038;SDS011;4062;49.844;8.120;2023-07-02T00:48:42;0.47;;;0.30;;
8038;SDS011;4062;49.844;8.120;2023-07-02T00:50:45;0.50;;;0.30;;
8038;SDS011;4062;49.844;8.120;2023-07-02T00:52:47;0.40;;;0.30;;
8038;SDS011;4062;49.844;8.120;2023-07-02T00:54:48;0.50;;;0.40;;
8038;SDS011;4062;49.844;8.120;2023-07-02T00:56:49;0.40;;;0.30;;
8038;SDS011;4062;49.844;8.120;2023-07-02T00:58:52;0.40;;;0.30;;
8038;SDS011;4062;49.844;8.120;2023-07-02T01:00:54;0.50;;;0.30;;
8038;SDS011;4062;49.844;8.120;2023-07-02T01:02:56;0.50;;;0.40;;
8038;SDS011;4062;49.844;8.120;2023-07-02T01:04:59;0.50;;;0.40;;
8038;SDS011;4062;49.844;8.120;2023-07-02T01:07:00;0.40;;;0.30;;
8038;SDS011;4062;49.844;8.120;2023-07-02T01:09:04;0.40;;;0.30;;
8038;SDS011;4062;49.844;8.120;2023-07-02T01:11:07;0.40;;;0.30;;
8038;SDS011;4062;49.844;8.120;2023-07-02T01:13:09;0.40;;;0.30;;
8038;SDS011;4062;49.844;8.120;2023-07-02T01:15:19;0.50;;;0.30;;
8038;SDS011;4062;49.844;8.120;2023-07-02T01:17:22;0.47;;;0.40;;
8038;SDS011;4062;49.844;8.120;2023-07-02T01:19:44;0.50;;;0.30;;
8038;SDS011;4062;49.844;8.120;2023-07-02T01:21:53;0.40;;;0.30;;
8038;SDS011;4062;49.844;8.120;2023-07-02T01:23:58;0.50;;;0.40;;
8038;SDS011;4062;49.844;8.120;2023-07-02T01:26:03;0.40;;;0.30;;
8038;SDS011;4062;49.844;8.120;2023-07-02T01:28:04;0.50;;;0.47;;
8038;SDS011;4062;49.844;8.120;2023-07-02T01:30:06;0.40;;;0.30;;
8038;SDS011;4062;49.844;8.120;2023-07-02T01:32:09;0.40;;;0.30;;
8038;SDS011;4062;49.844;8.120;2023-07-02T01:34:11;0.40;;;0.30;;
8038;SDS011;4062;49.844;8.120;2023-07-02T01:36:13;0.40;;;0.30;;
8038;SDS011;4062;49.844;8.120;2023-07-02T01:38:15;0.43;;;0.30;;
8038;SDS011;4062;49.844;8.120;2023-07-02T01:40:16;0.40;;;0.30;;
8038;SDS011;4062;49.844;8.120;2023-07-02T01:42:18;0.40;;;0.30;;
8038;SDS011;4062;49.844;8.120;2023-07-02T01:44:20;0.50;;;0.40;;
8038;SDS011;4062;49.844;8.120;2023-07-02T01:46:22;0.40;;;0.30;;
8038;SDS011;4062;49.844;8.120;2023-07-02T01:48:23;0.40;;;0.30;;
8038;SDS011;4062;49.844;8.120;2023-07-02T01:50:31;0.40;;;0.30;;
8038;SDS011;4062;49.844;8.120;2023-07-02T01:52:32;0.47;;;0.37;;
8038;SDS011;4062;49.844;8.120;2023-07-02T01:54:35;0.50;;;0.37;;
8038;SDS011;4062;49.844;8.120;2023-07-02T01:56:37;0.50;;;0.30;;
8038;SDS011;4062;49.844;8.120;2023-07-02T01:58:39;0.40;;;0.30;;
8038;SDS011;4062;49.844;8.120;2023-07-02T02:00:40;0.40;;;0.20;;
8038;SDS011;4062;49.844;8.120;2023-07-02T02:02:42;0.40;;;0.30;;
8038;SDS011;4062;49.844;8.120;2023-07-02T02:04:46;0.43;;;0.33;;
8038;SDS011;4062;49.844;8.120;2023-07-02T02:06:51;0.47;;;0.30;;
8038;SDS011;4062;49.844;8.120;2023-07-02T02:08:53;0.50;;;0.40;;
8038;SDS011;4062;49.844;8.120;2023-07-02T02:10:54;0.40;;;0.30;;
8038;SDS011;4062;49.844;8.120;2023-07-02T02:12:56;0.50;;;0.30;;
8038;SDS011;4062;49.844;8.120;2023-07-02T02:14:57;0.40;;;0.30;;
8038;SDS011;4062;49.844;8.120;2023-07-02T02:16:58;0.60;;;0.40;;
8038;SDS011;4062;49.844;8.120;2023-07-02T02:19:01;0.93;;;0.40;;
8038;SDS011;4062;49.844;8.120;2023-07-02T02:21:03;0.40;;;0.30;;
8038;SDS011;4062;49.844;8.120;2023-07-02T02:23:04;0.50;;;0.30;;
8038;SDS011;4062;49.844;8.120;2023-07-02T02:25:08;0.40;;;0.30;;
8038;SDS011;4062;49.844;8.120;2023-07-02T02:27:12;0.40;;;0.30;;
8038;SDS011;4062;49.844;8.120;2023-07-02T02:29:13;0.40;;;0.30;;
8038;SDS011;4062;49.844;8.120;2023-07-02T02:31:15;0.43;;;0.30;;
8038;SDS011;4062;49.844;8.120;2023-07-02T02:33:17;0.93;;;0.40;;
8038;SDS011;4062;49.844;8.120;2023-07-02T02:35:19;0.40;;;0.30;;
8038;SDS011;4062;49.844;8.120;2023-07-02T02:37:20;0.40;;;0.30;;
8038;SDS011;4062;49.844;8.120;2023-07-02T02:39:24;0.50;;;0.40;;
8038;SDS011;4062;49.844;8.120;2023-07-02T02:41:28;0.40;;;0.30;;
8038;SDS011;4062;49.844;8.120;2023-07-02T02:43:29;0.43;;;0.30;;
8038;SDS011;4062;49.844;8.120;2023-07-02T02:45:31;0.40;;;0.30;;
8038;SDS011;4062;49.844;8.120;2023-07-02T02:47:33;0.50;;;0.30;;
8038;SDS011;4062;49.844;8.120;2023-07-02T02:49:36;0.40;;;0.30;;
8038;SDS011;4062;49.844;8.120;2023-07-02T02:51:39;0.40;;;0.30;;
8038;SDS011;4062;49.844;8.120;2023-07-02T02:53:40;0.40;;;0.30;;
8038;SDS011;4062;49.844;8.120;2023-07-02T02:55:45;0.40;;;0.30;;
8038;SDS011;4062;49.844;8.120;2023-07-02T02:57:47;0.50;;;0.30;;
8038;SDS011;4062;49.844;8.120;2023-07-02T02:59:49;0.40;;;0.30;;
8038;SDS011;4062;49.844;8.120;2023-07-02T03:01:50;0.40;;;0.30;;
8038;SDS011;4062;49.844;8.120;2023-07-02T03:03:52;0.50;;;0.30;;
8038;SDS011;4062;49.844;8.120;2023-07-02T03:05:53;0.47;;;0.40;;
8038;SDS011;4062;49.844;8.120;2023-07-02T03:07:54;0.50;;;0.30;;
8038;SDS011;4062;49.844;8.120;2023-07-02T03:09:56;0.50;;;0.30;;
8038;SDS011;4062;49.844;8.120;2023-07-02T03:11:58;0.50;;;0.30;;
8038;SDS011;4062;49.844;8.120;2023-07-02T03:13:59;0.40;;;0.30;;
8038;SDS011;4062;49.844;8.120;2023-07-02T03:16:01;0.50;;;0.30;;
8038;SDS011;4062;49.844;8.120;2023-07-02T03:18:02;0.50;;;0.40;;
8038;SDS011;4062;49.844;8.120;2023-07-02T03:20:09;0.50;;;0.30;;
8038;SDS011;4062;49.844;8.120;2023-07-02T03:22:11;0.50;;;0.40;;
8038;SDS011;4062;49.844;8.120;2023-07-02T03:24:12;0.40;;;0.30;;
8038;SDS011;4062;49.844;8.120;2023-07-02T03:26:14;0.40;;;0.30;;
8038;SDS011;4062;49.844;8.120;2023-07-02T03:28:15;0.50;;;0.40;;
8038;SDS011;4062;49.844;8.120;2023-07-02T03:30:17;0.40;;;0.30;;
8038;SDS011;4062;49.844;8.120;2023-07-02T03:32:18;0.40;;;0.30;;
8038;SDS011;4062;49.844;8.120;2023-07-02T03:34:19;0.40;;;0.30;;
8038;SDS011;4062;49.844;8.120;2023-07-02T03:36:22;0.50;;;0.30;;
8038;SDS011;4062;49.844;8.120;2023-07-02T03:38:24;0.50;;;0.37;;
8038;SDS011;4062;49.844;8.120;2023-07-02T03:40:25;0.40;;;0.30;;
8038;SDS011;4062;49.844;8.120;2023-07-02T03:42:26;0.50;;;0.30;;
8038;SDS011;4062;49.844;8.120;2023-07-02T03:44:28;0.40;;;0.30;;
8038;SDS011;4062;49.844;8.120;2023-07-02T03:46:32;0.47;;;0.30;;
8038;SDS011;4062;49.844;8.120;2023-07-02T03:48:33;0.40;;;0.30;;
8038;SDS011;4062;49.844;8.120;2023-07-02T03:50:34;0.50;;;0.30;;
8038;SDS011;4062;49.844;8.120;2023-07-02T03:52:35;0.40;;;0.30;;
8038;SDS011;4062;49.844;8.120;2023-07-02T03:54:37;0.50;;;0.30;;
8038;SDS011;4062;49.844;8.120;2023-07-02T03:56:38;0.50;;;0.30;;
8038;SDS011;4062;49.844;8.120;2023-07-02T03:58:40;0.40;;;0.30;;
8038;SDS011;4062;49.844;8.120;2023-07-02T04:00:42;0.50;;;0.40;;
8038;SDS011;4062;49.844;8.120;2023-07-02T04:02:44;0.40;;;0.30;;
8038;SDS011;4062;49.844;8.120;2023-07-02T04:04:46;0.50;;;0.40;;
8038;SDS011;4062;49.844;8.120;2023-07-02T04:06:47;0.50;;;0.30;;
8038;SDS011;4062;49.844;8.120;2023-07-02T04:08:48;0.40;;;0.30;;
8038;SDS011;4062;49.844;8.120;2023-07-02T04:10:49;0.43;;;0.40;;
8038;SDS011;4062;49.844;8.120;2023-07-02T04:12:51;0.50;;;0.30;;
8038;SDS011;4062;49.844;8.120;2023-07-02T04:14:52;0.50;;;0.37;;
8038;SDS011;4062;49.844;8.120;2023-07-02T04:16:54;0.40;;;0.30;;
8038;SDS011;4062;49.844;8.120;2023-07-02T04:18:55;0.40;;;0.30;;
8038;SDS011;4062;49.844;8.120;2023-07-02T04:20:56;0.50;;;0.30;;
8038;SDS011;4062;49.844;8.120;2023-07-02T04:22:58;0.50;;;0.30;;
8038;SDS011;4062;49.844;8.120;2023-07-02T04:25:00;0.50;;;0.30;;
8038;SDS011;4062;49.844;8.120;2023-07-02T04:27:01;0.40;;;0.30;;
8038;SDS011;4062;49.844;8.120;2023-07-02T04:29:02;0.40;;;0.30;;
8038;SDS011;4062;49.844;8.120;2023-07-02T04:31:04;0.47;;;0.30;;
8038;SDS011;4062;49.844;8.120;2023-07-02T04:33:05;0.40;;;0.40;;
8038;SDS011;4062;49.844;8.120;2023-07-02T04:35:07;0.40;;;0.30;;
8038;SDS011;4062;49.844;8.120;2023-07-02T04:37:09;0.40;;;0.30;;
8038;SDS011;4062;49.844;8.120;2023-07-02T04:39:10;0.40;;;0.30;;
8038;SDS011;4062;49.844;8.120;2023-07-02T04:41:12;0.40;;;0.30;;
8038;SDS011;4062;49.844;8.120;2023-07-02T04:43:13;0.50;;;0.30;;
8038;SDS011;4062;49.844;8.120;2023-07-02T04:45:16;0.50;;;0.40;;
8038;SDS011;4062;49.844;8.120;2023-07-02T04:47:17;0.40;;;0.30;;
8038;SDS011;4062;49.844;8.120;2023-07-02T04:49:18;0.40;;;0.30;;
8038;SDS011;4062;49.844;8.120;2023-07-02T04:51:20;0.50;;;0.30;;
8038;SDS011;4062;49.844;8.120;2023-07-02T04:53:21;0.50;;;0.30;;
8038;SDS011;4062;49.844;8.120;2023-07-02T04:55:23;0.50;;;0.40;;
8038;SDS011;4062;49.844;8.120;2023-07-02T04:57:24;0.40;;;0.30;;
8038;SDS011;4062;49.844;8.120;2023-07-02T04:59:26;0.40;;;0.30;;
8038;SDS011;4062;49.844;8.120;2023-07-02T05:01:27;0.50;;;0.30;;
8038;SDS011;4062;49.844;8.120;2023-07-02T05:03:29;0.40;;;0.30;;
8038;SDS011;4062;49.844;8.120;2023-07-02T05:05:30;0.40;;;0.30;;
8038;SDS011;4062;49.844;8.120;2023-07-02T05:07:32;0.40;;;0.30;;
8038;SDS011;4062;49.844;8.120;2023-07-02T05:09:33;0.40;;;0.30;;
8038;SDS011;4062;49.844;8.120;2023-07-02T05:11:34;0.40;;;0.30;;
8038;SDS011;4062;49.844;8.120;2023-07-02T05:13:38;0.40;;;0.30;;
8038;SDS011;4062;49.844;8.120;2023-07-02T05:15:41;0.40;;;0.30;;
8038;SDS011;4062;49.844;8.120;2023-07-02T05:17:42;0.50;;;0.30;;
8038;SDS011;4062;49.844;8.120;2023-07-02T05:19:43;0.50;;;0.30;;
8038;SDS011;4062;49.844;8.120;2023-07-02T05:21:50;0.40;;;0.30;;
8038;SDS011;4062;49.844;8.120;2023-07-02T05:23:51;0.40;;;0.30;;
8038;SDS011;4062;49.844;8.120;2023-07-02T05:25:52;0.40;;;0.30;;
8038;SDS011;4062;49.844;8.120;2023-07-02T05:27:54;0.40;;;0.30;;
8038;SDS011;4062;49.844;8.120;2023-07-02T05:29:55;0.50;;;0.30;;
8038;SDS011;4062;49.844;8.120;2023-07-02T05:31:56;0.50;;;0.30;;
8038;SDS011;4062;49.844;8.120;2023-07-02T05:33:57;0.40;;;0.30;;
8038;SDS011;4062;49.844;8.120;2023-07-02T05:35:59;0.50;;;0.30;;
8038;SDS011;4062;49.844;8.120;2023-07-02T05:38:00;0.40;;;0.30;;
8038;SDS011;4062;49.844;8.120;2023-07-02T05:40:05;0.40;;;0.30;;
8038;SDS011;4062;49.844;8.120;2023-07-02T05:42:07;0.50;;;0.30;;
8038;SDS011;4062;49.844;8.120;2023-07-02T05:44:08;0.40;;;0.30;;
8038;SDS011;4062;49.844;8.120;2023-07-02T05:46:09;0.40;;;0.30;;
8038;SDS011;4062;49.844;8.120;2023-07-02T05:48:10;0.40;;;0.30;;
8038;SDS011;4062;49.844;8.120;2023-07-02T05:50:12;0.40;;;0.30;;
8038;SDS011;4062;49.844;8.120;2023-07-02T05:52:13;0.50;;;0.30;;
8038;SDS011;4062;49.844;8.120;2023-07-02T05:54:15;0.40;;;0.30;;
8038;SDS011;4062;49.844;8.120;2023-07-02T05:56:17;0.50;;;0.30;;
8038;SDS011;4062;49.844;8.120;2023-07-02T05:58:18;0.47;;;0.30;;
8038;SDS011;4062;49.844;8.120;2023-07-02T06:00:20;0.40;;;0.30;;
8038;SDS011;4062;49.844;8.120;2023-07-02T06:02:21;0.40;;;0.30;;
8038;SDS011;4062;49.844;8.120;2023-07-02T06:04:25;0.40;;;0.30;;
8038;SDS011;4062;49.844;8.120;2023-07-02T06:06:26;0.50;;;0.33;;
8038;SDS011;4062;49.844;8.120;2023-07-02T06:08:28;0.50;;;0.30;;
8038;SDS011;4062;49.844;8.120;2023-07-02T06:10:29;0.40;;;0.30;;
8038;SDS011;4062;49.844;8.120;2023-07-02T06:12:33;0.43;;;0.30;;
8038;SDS011;4062;49.844;8.120;2023-07-02T06:14:34;0.40;;;0.30;;
8038;SDS011;4062;49.844;8.120;2023-07-02T06:16:36;0.40;;;0.30;;
8038;SDS011;4062;49.844;8.120;2023-07-02T06:18:37;0.50;;;0.40;;
8038;SDS011;4062;49.844;8.120;2023-07-02T06:20:39;0.40;;;0.30;;
8038;SDS011;4062;49.844;8.120;2023-07-02T06:22:41;0.40;;;0.30;;
8038;SDS011;4062;49.844;8.120;2023-07-02T06:24:42;0.40;;;0.30;;
8038;SDS011;4062;49.844;8.120;2023-07-02T06:26:43;0.50;;;0.30;;
8038;SDS011;4062;49.844;8.120;2023-07-02T06:28:45;0.40;;;0.30;;
8038;SDS011;4062;49.844;8.120;2023-07-02T06:30:46;0.50;;;0.40;;
8038;SDS011;4062;49.844;8.120;2023-07-02T06:32:48;0.50;;;0.30;;
8038;SDS011;4062;49.844;8.120;2023-07-02T06:34:49;0.40;;;0.30;;
8038;SDS011;4062;49.844;8.120;2023-07-02T06:36:50;0.40;;;0.30;;
8038;SDS011;4062;49.844;8.120;2023-07-02T06:38:52;0.60;;;0.30;;
8038;SDS011;4062;49.844;8.120;2023-07-02T06:40:56;0.40;;;0.30;;
8038;SDS011;4062;49.844;8.120;2023-07-02T06:42:59;0.50;;;0.40;;
8038;SDS011;4062;49.844;8.120;2023-07-02T06:45:01;0.50;;;0.40;;
8038;SDS011;4062;49.844;8.120;2023-07-02T06:47:04;0.40;;;0.30;;
8038;SDS011;4062;49.844;8.120;2023-07-02T06:49:05;0.40;;;0.30;;
8038;SDS011;4062;49.844;8.120;2023-07-02T06:51:07;0.50;;;0.30;;
8038;SDS011;4062;49.844;8.120;2023-07-02T06:53:09;0.40;;;0.30;;
8038;SDS011;4062;49.844;8.120;2023-07-02T06:55:10;0.50;;;0.40;;
8038;SDS011;4062;49.844;8.120;2023-07-02T06:57:14;0.40;;;0.30;;
8038;SDS011;4062;49.844;8.120;2023-07-02T06:59:19;0.50;;;0.30;;
8038;SDS011;4062;49.844;8.120;2023-07-02T07:01:21;0.43;;;0.30;;
8038;SDS011;4062;49.844;8.120;2023-07-02T07:03:22;0.40;;;0.30;;
8038;SDS011;4062;49.844;8.120;2023-07-02T07:05:24;0.50;;;0.40;;
8038;SDS011;4062;49.844;8.120;2023-07-02T07:07:25;0.50;;;0.30;;
8038;SDS011;4062;49.844;8.120;2023-07-02T07:09:30;0.50;;;0.30;;
8038;SDS011;4062;49.844;8.120;2023-07-02T07:11:31;0.50;;;0.40;;
8038;SDS011;4062;49.844;8.120;2023-07-02T07:13:33;0.40;;;0.30;;
8038;SDS011;4062;49.844;8.120;2023-07-02T07:15:34;0.50;;;0.30;;
8038;SDS011;4062;49.844;8.120;2023-07-02T07:17:35;0.40;;;0.27;;
8038;SDS011;4062;49.844;8.120;2023-07-02T07:19:36;0.50;;;0.40;;
8038;SDS011;4062;49.844;8.120;2023-07-02T07:21:38;0.50;;;0.40;;
8038;SDS011;4062;49.844;8.120;2023-07-02T07:23:40;0.50;;;0.30;;
8038;SDS011;4062;49.844;8.120;2023-07-02T07:25:41;0.50;;;0.43;;
8038;SDS011;4062;49.844;8.120;2023-07-02T07:27:42;0.50;;;0.30;;
8038;SDS011;4062;49.844;8.120;2023-07-02T07:29:44;0.57;;;0.47;;
8038;SDS011;4062;49.844;8.120;2023-07-02T07:31:45;0.50;;;0.40;;
8038;SDS011;4062;49.844;8.120;2023-07-02T07:33:46;0.40;;;0.30;;
8038;SDS011;4062;49.844;8.120;2023-07-02T07:35:47;0.50;;;0.40;;
8038;SDS011;4062;49.844;8.120;2023-07-02T07:37:49;0.40;;;0.30;;
8038;SDS011;4062;49.844;8.120;2023-07-02T07:39:50;0.50;;;0.30;;
8038;SDS011;4062;49.844;8.120;2023-07-02T07:41:52;0.40;;;0.30;;
8038;SDS011;4062;49.844;8.120;2023-07-02T07:43:53;0.77;;;0.77;;
8038;SDS011;4062;49.844;8.120;2023-07-02T07:45:55;0.40;;;0.30;;
8038;SDS011;4062;49.844;8.120;2023-07-02T07:47:56;0.50;;;0.40;;
8038;SDS011;4062;49.844;8.120;2023-07-02T07:49:57;0.43;;;0.37;;
8038;SDS011;4062;49.844;8.120;2023-07-02T07:51:59;0.50;;;0.30;;
8038;SDS011;4062;49.844;8.120;2023-07-02T07:54:00;0.40;;;0.30;;
8038;SDS011;4062;49.844;8.120;2023-07-02T07:56:02;0.40;;;0.30;;
8038;SDS011;4062;49.844;8.120;2023-07-02T07:58:03;0.50;;;0.40;;
8038;SDS011;4062;49.844;8.120;2023-07-02T08:00:05;0.47;;;0.30;;
8038;SDS011;4062;49.844;8.120;2023-07-02T08:02:19;0.50;;;0.40;;
8038;SDS011;4062;49.844;8.120;2023-07-02T08:04:23;0.40;;;0.30;;
8038;SDS011;4062;49.844;8.120;2023-07-02T08:06:24;0.50;;;0.50;;
8038;SDS011;4062;49.844;8.120;2023-07-02T08:08:25;0.40;;;0.30;;
8038;SDS011;4062;49.844;8.120;2023-07-02T08:10:27;0.50;;;0.30;;
8038;SDS011;4062;49.844;8.120;2023-07-02T08:12:28;0.50;;;0.30;;
8038;SDS011;4062;49.844;8.120;2023-07-02T08:14:30;0.50;;;0.50;;
8038;SDS011;4062;49.844;8.120;2023-07-02T08:16:31;0.50;;;0.30;;
8038;SDS011;4062;49.844;8.120;2023-07-02T08:18:32;0.50;;;0.40;;
8038;SDS011;4062;49.844;8.120;2023-07-02T08:20:34;0.47;;;0.30;;
8038;SDS011;4062;49.844;8.120;2023-07-02T08:22:36;0.60;;;0.30;;
8038;SDS011;4062;49.844;8.120;2023-07-02T08:24:38;0.50;;;0.37;;
8038;SDS011;4062;49.844;8.120;2023-07-02T08:26:40;0.40;;;0.37;;
8038;SDS011;4062;49.844;8.120;2023-07-02T08:28:41;0.50;;;0.30;;
8038;SDS011;4062;49.844;8.120;2023-07-02T08:30:42;0.50;;;0.40;;
8038;SDS011;4062;49.844;8.120;2023-07-02T08:32:45;0.60;;;0.33;;
8038;SDS011;4062;49.844;8.120;2023-07-02T08:34:46;0.50;;;0.40;;
8038;SDS011;4062;49.844;8.120;2023-07-02T08:36:48;0.50;;;0.40;;
8038;SDS011;4062;49.844;8.120;2023-07-02T08:38:49;0.53;;;0.40;;
8038;SDS011;4062;49.844;8.120;2023-07-02T08:40:50;0.50;;;0.50;;
8038;SDS011;4062;49.844;8.120;2023-07-02T08:42:52;0.50;;;0.40;;
8038;SDS011;4062;49.844;8.120;2023-07-02T08:44:53;0.40;;;0.37;;
8038;SDS011;4062;49.844;8.120;2023-07-02T08:46:56;0.40;;;0.30;;
8038;SDS011;4062;49.844;8.120;2023-07-02T08:48:57;0.50;;;0.30;;
8038;SDS011;4062;49.844;8.120;2023-07-02T08:50:58;0.50;;;0.50;;
8038;SDS011;4062;49.844;8.120;2023-07-02T08:53:00;0.40;;;0.30;;
8038;SDS011;4062;49.844;8.120;2023-07-02T08:55:01;0.50;;;0.40;;
8038;SDS011;4062;49.844;8.120;2023-07-02T08:57:03;0.50;;;0.50;;
8038;SDS011;4062;49.844;8.120;2023-07-02T08:59:08;0.47;;;0.40;;
8038;SDS011;4062;49.844;8.120;2023-07-02T09:01:11;0.50;;;0.40;;
8038;SDS011;4062;49.844;8.120;2023-07-02T09:03:16;0.40;;;0.40;;
8038;SDS011;4062;49.844;8.120;2023-07-02T09:05:18;0.70;;;0.40;;
8038;SDS011;4062;49.844;8.120;2023-07-02T09:07:19;0.50;;;0.40;;
8038;SDS011;4062;49.844;8.120;2023-07-02T09:09:20;0.50;;;0.40;;
8038;SDS011;4062;49.844;8.120;2023-07-02T09:11:22;0.50;;;0.50;;
8038;SDS011;4062;49.844;8.120;2023-07-02T09:13:23;0.60;;;0.47;;
8038;SDS011;4062;49.844;8.120;2023-07-02T09:15:25;0.50;;;0.40;;
8038;SDS011;4062;49.844;8.120;2023-07-02T09:17:27;0.40;;;0.33;;
8038;SDS011;4062;49.844;8.120;2023-07-02T09:19:29;0.50;;;0.40;;
8038;SDS011;4062;49.844;8.120;2023-07-02T09:22:04;0.40;;;0.30;;
8038;SDS011;4062;49.844;8.120;2023-07-02T09:24:11;0.50;;;0.37;;
8038;SDS011;4062;49.844;8.120;2023-07-02T09:26:22;1.00;;;0.37;;
8038;SDS011;4062;49.844;8.120;2023-07-02T09:28:27;1.00;;;0.40;;
8038;SDS011;4062;49.844;8.120;2023-07-02T09:30:31;0.40;;;0.30;;
8038;SDS011;4062;49.844;8.120;2023-07-02T09:32:32;0.60;;;0.60;;
8038;SDS011;4062;49.844;8.120;2023-07-02T09:34:34;0.60;;;0.60;;
8038;SDS011;4062;49.844;8.120;2023-07-02T09:36:37;0.50;;;0.40;;
8038;SDS011;4062;49.844;8.120;2023-07-02T09:38:41;0.50;;;0.40;;
8038;SDS011;4062;49.844;8.120;2023-07-02T09:40:47;0.50;;;0.43;;
8038;SDS011;4062;49.844;8.120;2023-07-02T09:42:51;0.57;;;0.57;;
8038;SDS011;4062;49.844;8.120;2023-07-02T09:44:55;0.50;;;0.37;;
8038;SDS011;4062;49.844;8.120;2023-07-02T09:47:07;1.33;;;0.40;;
8038;SDS011;4062;49.844;8.120;2023-07-02T09:49:11;0.60;;;0.40;;
8038;SDS011;4062;49.844;8.120;2023-07-02T09:51:16;0.67;;;0.40;;
8038;SDS011;4062;49.844;8.120;2023-07-02T09:53:18;1.20;;;0.63;;
8038;SDS011;4062;49.844;8.120;2023-07-02T09:55:23;0.90;;;0.40;;
8038;SDS011;4062;49.844;8.120;2023-07-02T09:57:24;0.80;;;0.70;;
8038;SDS011;4062;49.844;8.120;2023-07-02T09:59:27;0.60;;;0.50;;
8038;SDS011;4062;49.844;8.120;2023-07-02T10:01:28;0.50;;;0.40;;
8038;SDS011;4062;49.844;8.120;2023-07-02T10:03:30;0.50;;;0.50;;
8038;SDS011;4062;49.844;8.120;2023-07-02T10:05:35;0.90;;;0.70;;
8038;SDS011;4062;49.844;8.120;2023-07-02T10:07:41;0.50;;;0.40;;
8038;SDS011;4062;49.844;8.120;2023-07-02T10:09:49;0.50;;;0.50;;
8038;SDS011;4062;49.844;8.120;2023-07-02T10:11:53;0.50;;;0.50;;
8038;SDS011;4062;49.844;8.120;2023-07-02T10:13:58;0.50;;;0.50;;
8038;SDS011;4062;49.844;8.120;2023-07-02T10:16:06;0.50;;;0.50;;
8038;SDS011;4062;49.844;8.120;2023-07-02T10:18:07;0.60;;;0.60;;
8038;SDS011;4062;49.844;8.120;2023-07-02T10:20:09;0.50;;;0.40;;
8038;SDS011;4062;49.844;8.120;2023-07-02T10:22:12;0.50;;;0.40;;
8038;SDS011;4062;49.844;8.120;2023-07-02T10:24:15;0.60;;;0.40;;
8038;SDS011;4062;49.844;8.120;2023-07-02T10:26:17;0.50;;;0.40;;
8038;SDS011;4062;49.844;8.120;2023-07-02T10:28:22;0.50;;;0.40;;
8038;SDS011;4062;49.844;8.120;2023-07-02T10:30:31;0.47;;;0.33;;
8038;SDS011;4062;49.844;8.120;2023-07-02T10:32:33;0.50;;;0.40;;
8038;SDS011;4062;49.844;8.120;2023-07-02T10:34:36;0.53;;;0.53;;
8038;SDS011;4062;49.844;8.120;2023-07-02T10:36:37;0.60;;;0.43;;
8038;SDS011;4062;49.844;8.120;2023-07-02T10:38:39;0.80;;;0.50;;
8038;SDS011;4062;49.844;8.120;2023-07-02T10:40:44;0.50;;;0.43;;
8038;SDS011;4062;49.844;8.120;2023-07-02T10:44:52;0.63;;;0.63;;
8038;SDS011;4062;49.844;8.120;2023-07-02T10:46:54;0.50;;;0.50;;
8038;SDS011;4062;49.844;8.120;2023-07-02T10:48:56;0.50;;;0.50;;
8038;SDS011;4062;49.844;8.120;2023-07-02T10:50:58;0.50;;;0.40;;
8038;SDS011;4062;49.844;8.120;2023-07-02T10:53:17;0.60;;;0.50;;
8038;SDS011;4062;49.844;8.120;2023-07-02T10:55:22;0.77;;;0.77;;
8038;SDS011;4062;49.844;8.120;2023-07-02T10:57:25;0.63;;;0.33;;
8038;SDS011;4062;49.844;8.120;2023-07-02T10:59:32;0.80;;;0.80;;
8038;SDS011;4062;49.844;8.120;2023-07-02T11:01:33;0.50;;;0.50;;
8038;SDS011;4062;49.844;8.120;2023-07-02T11:03:37;0.53;;;0.50;;
8038;SDS011;4062;49.844;8.120;2023-07-02T11:05:40;0.50;;;0.40;;
8038;SDS011;4062;49.844;8.120;2023-07-02T11:07:42;0.60;;;0.60;;
8038;SDS011;4062;49.844;8.120;2023-07-02T11:09:49;0.50;;;0.40;;
8038;SDS011;4062;49.844;8.120;2023-07-02T11:11:58;0.70;;;0.43;;
8038;SDS011;4062;49.844;8.120;2023-07-02T11:14:05;0.80;;;0.80;;
8038;SDS011;4062;49.844;8.120;2023-07-02T11:16:16;0.50;;;0.50;;
8038;SDS011;4062;49.844;8.120;2023-07-02T11:18:23;0.50;;;0.40;;
8038;SDS011;4062;49.844;8.120;2023-07-02T11:20:24;0.60;;;0.60;;
8038;SDS011;4062;49.844;8.120;2023-07-02T11:22:35;0.57;;;0.57;;
8038;SDS011;4062;49.844;8.120;2023-07-02T11:24:38;0.50;;;0.47;;
8038;SDS011;4062;49.844;8.120;2023-07-02T11:26:43;0.60;;;0.60;;
8038;SDS011;4062;49.844;8.120;2023-07-02T11:28:50;0.63;;;0.63;;
8038;SDS011;4062;49.844;8.120;2023-07-02T11:30:52;0.50;;;0.50;;
8038;SDS011;4062;49.844;8.120;2023-07-02T11:32:54;0.80;;;0.80;;
8038;SDS011;4062;49.844;8.120;2023-07-02T11:34:56;0.70;;;0.60;;
8038;SDS011;4062;49.844;8.120;2023-07-02T11:36:58;0.50;;;0.50;;
8038;SDS011;4062;49.844;8.120;2023-07-02T11:38:59;0.60;;;0.60;;
8038;SDS011;4062;49.844;8.120;2023-07-02T11:41:02;0.60;;;0.60;;
8038;SDS011;4062;49.844;8.120;2023-07-02T11:43:05;0.70;;;0.70;;
8038;SDS011;4062;49.844;8.120;2023-07-02T11:45:06;0.60;;;0.50;;
8038;SDS011;4062;49.844;8.120;2023-07-02T11:47:08;0.80;;;0.80;;
8038;SDS011;4062;49.844;8.120;2023-07-02T11:49:10;0.83;;;0.83;;
8038;SDS011;4062;49.844;8.120;2023-07-02T11:51:11;0.60;;;0.60;;
8038;SDS011;4062;49.844;8.120;2023-07-02T11:53:12;0.90;;;0.90;;
8038;SDS011;4062;49.844;8.120;2023-07-02T11:55:14;0.50;;;0.40;;
8038;SDS011;4062;49.844;8.120;2023-07-02T11:57:15;0.80;;;0.70;;
8038;SDS011;4062;49.844;8.120;2023-07-02T11:59:17;0.70;;;0.70;;
8038;SDS011;4062;49.844;8.120;2023-07-02T12:01:18;0.60;;;0.60;;
8038;SDS011;4062;49.844;8.120;2023-07-02T12:03:19;0.60;;;0.60;;
8038;SDS011;4062;49.844;8.120;2023-07-02T12:05:21;0.90;;;0.90;;
8038;SDS011;4062;49.844;8.120;2023-07-02T12:07:25;0.50;;;0.47;;
8038;SDS011;4062;49.844;8.120;2023-07-02T12:09:26;0.50;;;0.50;;
8038;SDS011;4062;49.844;8.120;2023-07-02T12:11:28;0.70;;;0.60;;
8038;SDS011;4062;49.844;8.120;2023-07-02T12:13:29;0.70;;;0.50;;
8038;SDS011;4062;49.844;8.120;2023-07-02T12:15:31;1.33;;;0.80;;
8038;SDS011;4062;49.844;8.120;2023-07-02T12:17:32;0.60;;;0.60;;
8038;SDS011;4062;49.844;8.120;2023-07-02T12:19:33;0.53;;;0.53;;
8038;SDS011;4062;49.844;8.120;2023-07-02T12:21:34;0.53;;;0.53;;
8038;SDS011;4062;49.844;8.120;2023-07-02T12:23:36;0.57;;;0.57;;
8038;SDS011;4062;49.844;8.120;2023-07-02T12:25:38;0.60;;;0.60;;
8038;SDS011;4062;49.844;8.120;2023-07-02T12:27:39;0.90;;;0.70;;
8038;SDS011;4062;49.844;8.120;2023-07-02T12:29:41;0.50;;;0.40;;
8038;SDS011;4062;49.844;8.120;2023-07-02T12:31:42;0.70;;;0.70;;
8038;SDS011;4062;49.844;8.120;2023-07-02T12:33:43;0.67;;;0.67;;
8038;SDS011;4062;49.844;8.120;2023-07-02T12:35:44;8.43;;;1.37;;
8038;SDS011;4062;49.844;8.120;2023-07-02T12:37:46;2.33;;;1.43;;
8038;SDS011;4062;49.844;8.120;2023-07-02T12:39:52;5.57;;;4.40;;
8038;SDS011;4062;49.844;8.120;2023-07-02T12:41:54;11.20;;;6.30;;
8038;SDS011;4062;49.844;8.120;2023-07-02T12:43:56;9.53;;;5.57;;